Time;durP1;ratioP1;P1;durP2;ratioP2;P2;SDS_P1;SDS_P2;PMS_P1;PMS_P2;Temp;Humidity;BMP_temperature;BMP_pressure;BME280_temperature;BME280_humidity;BME280_pressure;Samples;Min_cycle;Max_cycle;Signal;HPM_P1;HPM_P2
2022/06/21 00:00:17;;;;;;;13.82;5.95;;;7.80;99.90;;;;;;5075588;28;20129;-24
2022/06/21 00:02:44;;;;;;;17.52;6.38;;;7.80;99.90;;;;;;5075549;28;20067;-24
2022/06/21 00:05:24;;;;;;;20.80;6.05;;;7.70;99.90;;;;;;5075521;28;20045;-24
2022/06/21 00:07:49;;;;;;;15.48;5.88;;;7.80;99.90;;;;;;5075995;28;20044;-24
2022/06/21 00:10:18;;;;;;;18.17;7.40;;;7.80;99.90;;;;;;5074277;28;20390;-24
2022/06/21 00:12:45;;;;;;;16.75;7.07;;;7.80;99.90;;;;;;5074555;28;20094;-24
2022/06/21 00:15:11;;;;;;;17.75;7.40;;;7.80;99.90;;;;;;5075801;28;20060;-24
2022/06/21 00:17:46;;;;;;;17.75;7.35;;;7.70;99.90;;;;;;5074824;28;20393;-24
2022/06/21 00:20:18;;;;;;;14.90;6.72;;;7.70;99.90;;;;;;5075250;28;20052;-24
2022/06/21 00:22:44;;;;;;;17.02;6.10;;;7.70;99.90;;;;;;5075224;28;20393;-24
2022/06/21 00:25:36;;;;;;;18.85;7.68;;;7.80;99.90;;;;;;5075117;28;20040;-24
2022/06/21 00:28:01;;;;;;;18.77;7.75;;;7.60;99.90;;;;;;5073762;28;20044;-24
2022/06/21 00:30:27;;;;;;;15.13;8.52;;;7.60;99.90;;;;;;5074647;28;20062;-24
2022/06/21 00:32:55;;;;;;;16.45;7.82;;;7.60;99.90;;;;;;5074896;28;20037;-24
2022/06/21 00:35:22;;;;;;;21.55;9.68;;;7.60;99.90;;;;;;5075668;28;20103;-24
2022/06/21 00:37:49;;;;;;;18.98;8.43;;;7.60;99.90;;;;;;5074827;28;20395;-24
2022/06/21 00:40:17;;;;;;;21.15;8.55;;;7.70;99.90;;;;;;5075041;28;20118;-24
2022/06/21 00:42:46;;;;;;;21.65;9.23;;;7.60;99.90;;;;;;5074694;28;20052;-24
2022/06/21 00:45:23;;;;;;;13.88;7.63;;;7.60;99.90;;;;;;5074674;28;20044;-24
2022/06/21 00:47:52;;;;;;;22.77;9.52;;;7.60;99.90;;;;;;5073840;28;20040;-24
2022/06/21 00:50:35;;;;;;;20.95;9.82;;;7.70;99.90;;;;;;5074836;28;20044;-24
2022/06/21 00:53:14;;;;;;;24.87;9.53;;;7.70;99.90;;;;;;5074649;28;20036;-24
2022/06/21 00:55:57;;;;;;;23.55;10.88;;;7.80;99.90;;;;;;5074480;28;20044;-24
2022/06/21 00:58:27;;;;;;;26.33;10.48;;;7.70;99.90;;;;;;5074472;28;20094;-24
2022/06/21 01:01:14;;;;;;;16.75;11.10;;;7.70;99.90;;;;;;5075819;28;20071;-24
2022/06/21 01:03:48;;;;;;;25.20;11.25;;;7.70;99.90;;;;;;5057561;28;20062;-24
2022/06/21 01:06:20;;;;;;;26.85;10.50;;;7.70;99.90;;;;;;5074865;28;20131;-24
2022/06/21 01:08:51;;;;;;;24.48;13.13;;;7.70;99.90;;;;;;5074234;28;20041;-24
2022/06/21 01:11:27;;;;;;;23.15;11.15;;;7.70;99.90;;;;;;5073731;28;20386;-24
2022/06/21 01:13:55;;;;;;;21.00;11.85;;;7.70;99.90;;;;;;5073575;28;20109;-24
2022/06/21 01:16:25;;;;;;;21.70;11.70;;;7.80;99.90;;;;;;5074077;28;20048;-24
2022/06/21 01:18:51;;;;;;;23.10;12.68;;;7.80;99.90;;;;;;5072994;28;20036;-24
2022/06/21 01:21:19;;;;;;;21.58;11.10;;;7.90;99.90;;;;;;5073695;28;20058;-24
2022/06/21 01:23:54;;;;;;;19.83;11.38;;;7.80;99.90;;;;;;5072882;28;20044;-24
2022/06/21 01:26:43;;;;;;;21.92;10.50;;;7.80;99.90;;;;;;5074551;28;20052;-24
2022/06/21 01:29:16;;;;;;;16.77;9.25;;;7.90;1.00;;;;;;5073944;28;20036;-24
2022/06/21 01:31:43;;;;;;;17.55;9.30;;;7.90;1.00;;;;;;5074228;28;20142;-24
2022/06/21 01:34:21;;;;;;;21.92;9.40;;;7.80;1.00;;;;;;5073814;28;20105;-24
2022/06/21 01:37:06;;;;;;;21.75;9.93;;;7.80;99.90;;;;;;5073208;28;20044;-24
2022/06/21 01:39:41;;;;;;;17.10;8.73;;;7.70;99.90;;;;;;5073693;28;20405;-24
2022/06/21 01:42:12;;;;;;;15.35;9.05;;;7.70;1.00;;;;;;5074125;28;20398;-24
2022/06/21 01:44:49;;;;;;;22.98;12.38;;;7.70;1.00;;;;;;5073457;28;20510;-24
2022/06/21 01:47:19;;;;;;;24.02;11.88;;;7.70;1.00;;;;;;5074280;28;20359;-24
2022/06/21 01:49:53;;;;;;;24.92;12.30;;;7.70;1.00;;;;;;5074242;28;20091;-24
2022/06/21 01:52:22;;;;;;;22.92;13.73;;;7.70;1.00;;;;;;5073730;28;20047;-24
2022/06/21 01:54:59;;;;;;;361.98;28.30;;;7.70;1.00;;;;;;5073574;28;20055;-24
2022/06/21 01:57:27;;;;;;;302.58;20.77;;;7.80;1.00;;;;;;5074504;28;20040;-24
2022/06/21 01:59:53;;;;;;;14.57;10.38;;;7.80;1.00;;;;;;5055807;28;20044;-24
2022/06/21 02:02:31;;;;;;;23.40;12.40;;;7.70;1.00;;;;;;5074112;28;20048;-23
2022/06/21 02:05:13;;;;;;;22.83;11.80;;;7.70;1.00;;;;;;5074455;28;20048;-23
2022/06/21 02:07:44;;;;;;;21.73;10.73;;;7.50;1.00;;;;;;5073214;28;20486;-24
2022/06/21 02:10:10;;;;;;;14.52;10.30;;;7.50;1.00;;;;;;5072858;28;20135;-24
2022/06/21 02:12:43;;;;;;;13.85;9.35;;;7.50;1.00;;;;;;5073415;28;20087;-24
2022/06/21 02:15:19;;;;;;;11.10;6.93;;;7.50;1.00;;;;;;5073568;28;20114;-24
2022/06/21 02:17:47;;;;;;;15.93;7.75;;;7.50;1.00;;;;;;5073324;28;20052;-24
2022/06/21 02:20:21;;;;;;;13.52;8.55;;;7.60;1.00;;;;;;5073351;28;20089;-24
2022/06/21 02:22:47;;;;;;;17.17;7.82;;;7.50;1.00;;;;;;5074011;28;20119;-24
2022/06/21 02:25:23;;;;;;;10.98;7.15;;;7.40;1.00;;;;;;5073234;28;20170;-24
2022/06/21 02:27:50;;;;;;;13.15;7.47;;;7.40;1.00;;;;;;5071722;28;20048;-24
2022/06/21 02:30:22;;;;;;;14.45;7.70;;;7.40;1.00;;;;;;5056498;28;20110;-24
2022/06/21 02:32:49;;;;;;;15.13;8.00;;;7.50;1.00;;;;;;5073521;28;20128;-24
2022/06/21 02:35:30;;;;;;;14.57;9.98;;;7.60;1.00;;;;;;5073811;28;20052;-24
2022/06/21 02:38:00;;;;;;;15.10;9.85;;;7.80;26.70;;;;;;5072108;28;20040;-24
2022/06/21 02:40:32;;;;;;;19.52;11.13;;;7.90;99.90;;;;;;5073176;28;20115;-24
2022/06/21 02:43:06;;;;;;;13.20;10.83;;;8.10;99.90;;;;;;5073542;28;20049;-24
2022/06/21 02:45:46;;;;;;;20.63;13.68;;;8.20;99.90;;;;;;5073469;28;20044;-24
2022/06/21 02:48:19;;;;;;;12.95;8.90;;;8.30;99.90;;;;;;5073369;28;20371;-24
2022/06/21 02:50:50;;;;;;;15.82;8.85;;;8.50;99.90;;;;;;5073727;28;20402;-24
2022/06/21 02:53:22;;;;;;;16.98;11.45;;;8.60;99.90;;;;;;5072973;28;20052;-24
2022/06/21 02:55:55;;;;;;;24.95;12.15;;;8.60;99.90;;;;;;5073644;28;20048;-24
2022/06/21 02:58:34;;;;;;;27.67;12.57;;;8.70;99.90;;;;;;5072229;28;20088;-24
2022/06/21 03:01:03;;;;;;;18.98;12.05;;;8.80;99.90;;;;;;5072345;28;20153;-24
2022/06/21 03:03:31;;;;;;;23.58;14.48;;;8.90;99.90;;;;;;5073800;28;20091;-24
2022/06/21 03:06:00;;;;;;;14.85;11.68;;;8.90;99.90;;;;;;5072951;28;20045;-24
2022/06/21 03:08:29;;;;;;;23.77;13.90;;;9.00;99.90;;;;;;5073384;28;20482;-24
2022/06/21 03:10:55;;;;;;;22.70;11.82;;;9.10;99.90;;;;;;5073164;28;20088;-24
2022/06/21 03:13:26;;;;;;;19.60;11.98;;;9.10;99.90;;;;;;5075204;28;20052;-25
2022/06/21 03:16:05;;;;;;;16.88;11.70;;;9.10;99.90;;;;;;5077285;28;20037;-24
2022/06/21 03:18:44;;;;;;;18.40;12.48;;;9.10;99.90;;;;;;5076285;28;20056;-24
2022/06/21 03:21:14;;;;;;;29.48;14.40;;;9.10;99.90;;;;;;5076901;28;20131;-24
2022/06/21 03:23:42;;;;;;;17.60;12.00;;;9.10;99.90;;;;;;5076336;28;20133;-24
2022/06/21 03:26:09;;;;;;;23.13;11.93;;;9.10;99.90;;;;;;5076515;28;20135;-24
2022/06/21 03:28:37;;;;;;;17.38;11.50;;;9.20;99.90;;;;;;5076642;28;20056;-25
2022/06/21 03:31:12;;;;;;;23.58;12.23;;;9.20;99.90;;;;;;5076117;28;20048;-24
2022/06/21 03:33:45;;;;;;;18.80;10.95;;;9.30;99.90;;;;;;5076143;28;20068;-24
2022/06/21 03:36:14;;;;;;;13.23;9.73;;;9.30;99.90;;;;;;5076123;28;20040;-24
2022/06/21 03:38:46;;;;;;;22.02;11.48;;;9.30;99.90;;;;;;5076008;28;20076;-24
2022/06/21 03:44:11;;;;;;;18.52;11.25;;;9.30;99.90;;;;;;5076536;28;20135;-25
2022/06/21 03:46:54;;;;;;;18.23;10.13;;;9.40;99.90;;;;;;5076189;28;20395;-24
2022/06/21 03:49:38;;;;;;;20.25;11.13;;;9.40;99.90;;;;;;5075476;28;20398;-24
2022/06/21 03:52:09;;;;;;;16.92;10.02;;;9.50;99.90;;;;;;5076109;28;20055;-24
2022/06/21 03:54:39;;;;;;;22.42;10.27;;;9.50;99.90;;;;;;5076340;28;20048;-24
2022/06/21 03:57:24;;;;;;;17.63;9.60;;;9.50;99.90;;;;;;5076223;28;20087;-24
2022/06/21 04:00:09;;;;;;;17.65;8.43;;;9.60;99.90;;;;;;5076447;28;20047;-25
2022/06/21 04:02:50;;;;;;;14.90;7.97;;;9.60;99.90;;;;;;5075602;28;20045;-25
2022/06/21 04:05:21;;;;;;;15.40;8.70;;;9.60;99.90;;;;;;5075527;28;20482;-25
2022/06/21 04:07:57;;;;;;;17.55;9.05;;;9.60;99.90;;;;;;5074422;28;20056;-24
2022/06/21 04:10:27;;;;;;;11.20;8.20;;;9.60;99.90;;;;;;5075179;28;20503;-25
2022/06/21 04:13:12;;;;;;;10.80;7.53;;;9.50;99.90;;;;;;5075356;28;20056;-24
2022/06/21 04:15:58;;;;;;;11.35;7.70;;;9.50;99.90;;;;;;5074195;28;20052;-24
2022/06/21 04:18:47;;;;;;;16.85;8.80;;;9.40;99.90;;;;;;5074292;28;20044;-24
2022/06/21 04:21:20;;;;;;;16.02;9.73;;;9.40;99.90;;;;;;5076085;28;20436;-24
2022/06/21 04:24:08;;;;;;;16.30;9.40;;;9.30;99.90;;;;;;5074225;28;20087;-24
2022/06/21 04:26:44;;;;;;;15.98;9.00;;;9.40;99.90;;;;;;5075679;28;20044;-24
2022/06/21 04:29:29;;;;;;;17.85;9.85;;;9.40;99.90;;;;;;5075587;28;20055;-24
2022/06/21 04:32:06;;;;;;;13.30;9.32;;;9.40;99.90;;;;;;5075068;28;20501;-24
2022/06/21 04:34:38;;;;;;;15.15;9.20;;;9.40;99.90;;;;;;5075141;28;20057;-24
2022/06/21 04:37:13;;;;;;;15.82;9.73;;;9.50;99.90;;;;;;5075076;28;20040;-24
2022/06/21 04:40:17;;;;;;;13.32;9.45;;;9.50;99.90;;;;;;5074754;28;20059;-25
2022/06/21 04:43:02;;;;;;;13.90;9.20;;;9.60;99.90;;;;;;5075627;28;20110;-24
2022/06/21 04:45:45;;;;;;;16.38;10.65;;;9.70;99.90;;;;;;5074245;28;20376;-24
2022/06/21 04:48:24;;;;;;;20.20;10.85;;;9.80;99.90;;;;;;5075405;28;20045;-24
2022/06/21 04:51:17;;;;;;;14.90;10.23;;;9.90;99.90;;;;;;5073621;28;20045;-24
2022/06/21 04:54:06;;;;;;;24.17;11.25;;;10.00;99.90;;;;;;5056943;28;20063;-25
2022/06/21 04:56:52;;;;;;;14.75;10.45;;;10.20;99.90;;;;;;5074523;28;20052;-25
2022/06/21 04:59:25;;;;;;;13.95;10.00;;;10.30;99.90;;;;;;5075098;28;20131;-25
2022/06/21 05:01:51;;;;;;;16.65;10.70;;;10.50;99.90;;;;;;5074412;28;20036;-25
2022/06/21 05:04:22;;;;;;;20.75;11.55;;;10.90;99.90;;;;;;5074367;28;20398;-25
2022/06/21 05:06:50;;;;;;;18.50;10.68;;;11.60;99.90;;;;;;5074587;28;20045;-25
2022/06/21 05:09:19;;;;;;;13.25;9.05;;;12.60;99.90;;;;;;5074475;28;20044;-25
2022/06/21 05:11:45;;;;;;;11.38;7.55;;;13.50;99.90;;;;;;5074657;28;20056;-25
2022/06/21 05:14:21;;;;;;;11.30;6.88;;;14.20;99.90;;;;;;5074161;28;20131;-25
2022/06/21 05:16:48;;;;;;;12.07;6.03;;;14.70;1.00;;;;;;5074465;28;20052;-25
2022/06/21 05:19:36;;;;;;;11.00;6.38;;;14.90;99.90;;;;;;5074061;28;20047;-25
2022/06/21 05:22:09;;;;;;;7.57;5.43;;;15.00;99.90;;;;;;5074077;28;20048;-25
2022/06/21 05:24:35;;;;;;;10.05;6.07;;;15.30;1.00;;;;;;5073954;28;20057;-25
2022/06/21 05:27:01;;;;;;;10.25;6.35;;;15.20;99.90;;;;;;5073854;28;20060;-25
2022/06/21 05:29:58;;;;;;;10.68;6.15;;;15.60;99.90;;;;;;5073949;28;20098;-25
2022/06/21 05:32:31;;;;;;;9.43;5.32;;;16.10;63.40;;;;;;5073636;28;20117;-25
2022/06/21 05:35:03;;;;;;;9.73;5.38;;;16.70;1.00;;;;;;5073624;28;20040;-25
2022/06/21 05:37:35;;;;;;;9.82;5.85;;;17.10;99.90;;;;;;5073067;28;20390;-25
2022/06/21 05:40:30;;;;;;;8.70;4.78;;;17.30;99.90;;;;;;5073908;28;20048;-25
2022/06/21 05:42:57;;;;;;;10.85;4.50;;;17.60;95.00;;;;;;5064916;28;20525;-25
2022/06/21 05:45:31;;;;;;;17.48;6.50;;;17.50;23.70;;;;;;5056236;28;20052;-25
2022/06/21 05:48:11;;;;;;;15.93;6.15;;;17.80;23.60;;;;;;5073709;28;20123;-25
2022/06/21 05:50:37;;;;;;;11.10;5.05;;;18.30;1.00;;;;;;5073755;28;20044;-25
2022/06/21 05:53:25;;;;;;;8.93;5.10;;;18.70;1.00;;;;;;5073355;28;20049;-25
2022/06/21 05:55:51;;;;;;;6.78;3.03;;;18.70;99.90;;;;;;5074223;28;20363;-25
2022/06/21 05:58:32;;;;;;;8.05;3.47;;;18.60;99.90;;;;;;5072619;28;20051;-25
2022/06/21 06:01:13;;;;;;;11.68;3.05;;;18.50;99.90;;;;;;5074232;28;20052;-25
2022/06/21 06:03:54;;;;;;;9.90;3.70;;;18.20;99.90;;;;;;5073851;28;20545;-25
2022/06/21 06:06:21;;;;;;;7.70;2.90;;;17.40;99.90;;;;;;5073901;28;20048;-24
2022/06/21 06:08:52;;;;;;;8.60;3.28;;;16.40;99.90;;;;;;5072331;28;20526;-24
2022/06/21 06:11:57;;;;;;;9.65;3.45;;;15.60;1.00;;;;;;5073915;28;20055;-24
2022/06/21 06:14:16;;;;;;;11.63;4.00;;;15.10;1.00;;;;;;5073749;28;20135;-24
2022/06/21 06:16:45;;;;;;;6.97;2.83;;;14.70;22.40;;;;;;5072497;28;20044;-24
2022/06/21 06:19:20;;;;;;;9.82;3.92;;;14.50;90.60;;;;;;5073943;28;20087;-24
2022/06/21 06:22:07;;;;;;;13.27;3.95;;;14.50;99.90;;;;;;5073462;28;20040;-24
2022/06/21 06:25:00;;;;;;;10.00;3.88;;;15.00;95.50;;;;;;5073427;28;20049;-24
2022/06/21 06:27:45;;;;;;;10.82;3.55;;;15.50;1.00;;;;;;5063401;28;20049;-25
2022/06/21 06:30:24;;;;;;;8.82;3.08;;;16.00;1.00;;;;;;5072157;28;20109;-25
2022/06/21 06:33:03;;;;;;;9.20;3.25;;;15.90;1.00;;;;;;5073618;28;20056;-24
2022/06/21 06:35:29;;;;;;;7.30;3.10;;;15.70;99.90;;;;;;5074122;28;20044;-24
2022/06/21 06:37:55;;;;;;;9.85;3.97;;;15.60;1.00;;;;;;5073271;28;20040;-25
2022/06/21 06:40:31;;;;;;;10.50;3.38;;;15.60;1.00;;;;;;5073741;28;20055;-25
2022/06/21 06:43:02;;;;;;;8.00;3.60;;;15.70;1.00;;;;;;5074152;28;20047;-25
2022/06/21 06:45:33;;;;;;;9.20;3.78;;;15.50;1.00;;;;;;5074392;28;20182;-25
2022/06/21 06:48:03;;;;;;;12.15;4.70;;;15.40;1.00;;;;;;5077767;28;20115;-25
2022/06/21 06:50:36;;;;;;;10.77;4.88;;;15.40;1.00;;;;;;5077573;28;20111;-24
2022/06/21 06:53:07;;;;;;;11.20;3.80;;;15.20;1.00;;;;;;5076951;28;20052;-25
2022/06/21 06:55:42;;;;;;;11.30;4.55;;;15.20;1.00;;;;;;5077148;28;20052;-25
2022/06/21 06:58:20;;;;;;;10.45;4.72;;;15.20;1.00;;;;;;5076780;28;20093;-24
2022/06/21 07:00:51;;;;;;;11.95;3.80;;;15.30;1.00;;;;;;5075628;28;20182;-24
2022/06/21 07:03:24;;;;;;;10.65;4.03;;;15.60;1.00;;;;;;5076989;28;20150;-25
2022/06/21 07:06:04;;;;;;;11.07;4.22;;;17.00;1.00;;;;;;5059030;28;20088;-25
2022/06/21 07:08:36;;;;;;;7.68;3.30;;;18.40;99.90;;;;;;5077300;28;20041;-25
2022/06/21 07:11:20;;;;;;;10.52;3.15;;;19.00;93.40;;;;;;5076449;28;20482;-25
2022/06/21 07:13:47;;;;;;;8.50;2.97;;;19.30;1.00;;;;;;5075567;28;20044;-25
2022/06/21 07:16:18;;;;;;;12.90;3.83;;;19.60;1.00;;;;;;5059105;28;20056;-25
2022/06/21 07:18:50;;;;;;;5.90;2.97;;;19.60;1.00;;;;;;5077329;28;20068;-25
2022/06/21 07:21:18;;;;;;;6.55;3.47;;;18.80;1.00;;;;;;5076404;28;20044;-25
2022/06/21 07:23:44;;;;;;;9.30;2.70;;;18.20;72.80;;;;;;5076614;28;20084;-25
2022/06/21 07:26:30;;;;;;;14.20;3.88;;;18.80;24.10;;;;;;5076290;28;20088;-25
2022/06/21 07:28:58;;;;;;;8.20;3.40;;;19.40;1.00;;;;;;5074801;28;20059;-25
2022/06/21 07:31:41;;;;;;;3.85;1.73;;;20.40;1.00;;;;;;5075171;28;20482;-25
2022/06/21 07:34:37;;;;;;;5.72;2.17;;;20.80;99.90;;;;;;5076482;28;20048;-25
2022/06/21 07:37:15;;;;;;;6.75;2.88;;;21.00;1.00;;;;;;5066191;28;20052;-25
2022/06/21 07:39:54;;;;;;;6.28;3.20;;;21.30;99.90;;;;;;5075447;28;20052;-25
2022/06/21 07:42:23;;;;;;;7.70;2.72;;;21.20;99.90;;;;;;5076012;28;20048;-25
2022/06/21 07:45:01;;;;;;;10.23;2.95;;;20.40;99.90;;;;;;5074744;28;20119;-25
2022/06/21 07:47:40;;;;;;;9.00;3.35;;;19.40;1.00;;;;;;5075877;28;20040;-25
2022/06/21 07:50:35;;;;;;;8.68;4.03;;;19.30;1.00;;;;;;5075727;28;20390;-25
2022/06/21 07:53:11;;;;;;;12.35;4.00;;;19.10;1.00;;;;;;5073584;28;20052;-25
2022/06/21 07:55:41;;;;;;;11.48;4.15;;;18.80;1.00;;;;;;5076019;28;20607;-25
2022/06/21 07:58:22;;;;;;;4.57;2.38;;;18.50;1.00;;;;;;5074424;28;20052;-25
2022/06/21 08:06:42;;;;;;;10.15;3.45;;;18.60;1.00;;;;;;5063012;28;20052;-25
2022/06/21 08:09:17;;;;;;;7.28;3.72;;;19.70;1.00;;;;;;5075947;28;20151;-25
2022/06/21 08:11:45;;;;;;;9.32;4.40;;;20.10;1.00;;;;;;5075386;28;20049;-25
2022/06/21 08:14:12;;;;;;;8.80;3.28;;;20.40;99.90;;;;;;5076188;28;20432;-25
2022/06/21 08:16:45;;;;;;;9.00;3.58;;;20.00;99.90;;;;;;5075316;28;20056;-25
2022/06/21 08:19:16;;;;;;;6.32;2.75;;;19.20;1.00;;;;;;5075300;28;20470;-25
2022/06/21 08:21:54;;;;;;;6.35;3.22;;;18.10;1.00;;;;;;5075304;28;20098;-25
2022/06/21 08:24:27;;;;;;;8.70;3.45;;;17.40;1.00;;;;;;5075473;28;20138;-25
2022/06/21 08:27:19;;;;;;;13.63;3.55;;;16.90;37.10;;;;;;5075206;28;20051;-25
2022/06/21 08:29:54;;;;;;;7.20;2.57;;;16.60;78.70;;;;;;5075303;28;20505;-25
2022/06/21 08:32:35;;;;;;;5.68;2.60;;;16.40;84.70;;;;;;5074048;28;20041;-25
2022/06/21 08:35:23;;;;;;;7.30;2.97;;;16.40;99.90;;;;;;5075816;28;20424;-25
2022/06/21 08:38:05;;;;;;;8.93;2.40;;;17.30;99.90;;;;;;5073707;28;20052;-25
2022/06/21 08:41:51;;;;;;;6.22;2.13;;;18.70;1.00;;;;;;5074353;28;20097;-25
2022/06/21 08:44:09;;;;;;;7.60;2.80;;;19.70;1.00;;;;;;5074420;28;20121;-25
2022/06/21 08:46:55;;;;;;;5.90;2.72;;;20.20;99.90;;;;;;5075018;28;20489;-25
2022/06/21 08:49:58;;;;;;;7.88;2.40;;;20.50;99.90;;;;;;5074629;28;20045;-25
2022/06/21 08:52:33;;;;;;;12.52;3.15;;;20.50;99.90;;;;;;5074302;28;20398;-25
2022/06/21 08:55:38;;;;;;;7.65;2.28;;;20.60;99.90;;;;;;5075630;28;20141;-25
2022/06/21 08:58:13;;;;;;;7.95;2.78;;;21.10;99.90;;;;;;5074413;28;20060;-25
2022/06/21 09:00:44;;;;;;;6.53;2.15;;;21.50;99.90;;;;;;5075328;28;20102;-25
2022/06/21 09:03:17;;;;;;;5.72;2.50;;;21.70;99.90;;;;;;5074975;28;20497;-25
2022/06/21 09:06:04;;;;;;;5.32;2.33;;;22.00;99.90;;;;;;5074395;28;20508;-25
2022/06/21 09:08:55;;;;;;;4.40;1.85;;;22.30;99.90;;;;;;5073738;28;20041;-25
2022/06/21 09:11:47;;;;;;;4.45;1.70;;;22.20;99.90;;;;;;5074222;28;20048;-25
2022/06/21 09:14:24;;;;;;;4.95;1.73;;;21.90;96.00;;;;;;5071868;28;20075;-25
2022/06/21 09:17:15;;;;;;;10.40;2.95;;;21.50;35.10;;;;;;5074205;28;20044;-25
2022/06/21 09:20:02;;;;;;;9.60;2.67;;;20.90;99.90;;;;;;5074240;28;20080;-25
2022/06/21 09:22:36;;;;;;;10.60;1.80;;;20.30;99.90;;;;;;5074360;28;20080;-25
2022/06/21 09:25:05;;;;;;;10.18;3.00;;;19.50;99.90;;;;;;5074105;28;20052;-25
2022/06/21 09:27:49;;;;;;;7.55;2.42;;;18.90;99.90;;;;;;5073633;28;20060;-25
2022/06/21 09:30:32;;;;;;;4.07;1.80;;;19.40;99.90;;;;;;5074473;28;20040;-25
2022/06/21 09:33:28;;;;;;;5.15;1.60;;;20.10;99.90;;;;;;5074832;28;20051;-25
2022/06/21 09:36:02;;;;;;;4.53;1.58;;;20.80;99.90;;;;;;5072760;28;20135;-26
2022/06/21 09:39:02;;;;;;;6.53;2.05;;;21.50;99.90;;;;;;5074776;28;20082;-25
2022/06/21 09:41:40;;;;;;;7.15;2.17;;;22.30;98.90;;;;;;5074134;28;20434;-25
2022/06/21 09:44:46;;;;;;;5.82;1.80;;;23.50;61.20;;;;;;5074168;28;20402;-25
2022/06/21 09:47:34;;;;;;;4.72;1.60;;;24.00;1.00;;;;;;5053757;28;20106;-26
2022/06/21 09:50:16;;;;;;;5.60;1.73;;;22.60;1.00;;;;;;5073415;28;20406;-26
2022/06/21 09:52:52;;;;;;;6.45;1.80;;;21.30;30.30;;;;;;5073804;28;20044;-26
2022/06/21 09:55:41;;;;;;;4.60;1.30;;;20.70;99.90;;;;;;5056071;28;20101;-25
2022/06/21 09:58:25;;;;;;;3.75;1.33;;;20.90;99.90;;;;;;5074539;28;20063;-26
2022/06/21 10:01:14;;;;;;;5.55;1.42;;;20.80;1.00;;;;;;5073630;28;20071;-25
2022/06/21 10:04:12;;;;;;;3.85;1.30;;;20.60;83.30;;;;;;5073512;28;20102;-26
2022/06/21 10:06:47;;;;;;;5.72;1.55;;;21.60;81.80;;;;;;5056746;28;20060;-26
2022/06/21 10:09:16;;;;;;;2.72;1.02;;;22.40;1.00;;;;;;5073230;28;20125;-25
2022/06/21 10:12:10;;;;;;;5.35;1.65;;;22.60;1.00;;;;;;5073452;28;20044;-26
2022/06/21 10:15:02;;;;;;;2.78;1.20;;;22.70;1.00;;;;;;5074389;28;20048;-26
2022/06/21 10:17:57;;;;;;;4.35;1.40;;;23.00;1.00;;;;;;5073522;28;20048;-25
2022/06/21 10:20:32;;;;;;;8.27;1.83;;;23.90;1.00;;;;;;5075741;28;20052;-25
2022/06/21 10:22:58;;;;;;;6.90;1.63;;;23.60;1.00;;;;;;5060427;28;20052;-25
2022/06/21 10:25:36;;;;;;;4.30;1.58;;;22.40;1.00;;;;;;5078257;28;20086;-26
2022/06/21 10:28:24;;;;;;;7.38;2.10;;;21.40;1.00;;;;;;5059370;28;20114;-25
2022/06/21 10:31:03;;;;;;;5.18;2.03;;;21.60;37.70;;;;;;5077921;28;20055;-26
2022/06/21 10:33:55;;;;;;;7.85;1.70;;;22.30;1.00;;;;;;5077334;28;20048;-26
2022/06/21 10:36:47;;;;;;;5.60;1.20;;;23.50;1.00;;;;;;5068480;28;20057;-26
2022/06/21 10:39:22;;;;;;;5.15;0.85;;;23.80;99.90;;;;;;5077243;28;20037;-26
2022/06/21 10:45:16;;;;;;;3.05;1.20;;;24.60;99.90;;;;;;5077921;28;20056;-26
2022/06/21 10:48:20;;;;;;;4.28;1.45;;;24.80;99.90;;;;;;5076597;28;20090;-26
2022/06/21 10:51:11;;;;;;;5.70;1.27;;;23.60;99.90;;;;;;5077035;28;20044;-27
2022/06/21 10:53:49;;;;;;;4.97;1.67;;;22.90;99.90;;;;;;5076801;28;20131;-25
2022/06/21 10:57:09;;;;;;;4.47;1.48;;;22.60;1.00;;;;;;5076823;28;20127;-26
2022/06/21 11:03:42;;;;;;;4.50;1.00;;;22.50;99.90;;;;;;5054896;28;20087;-25
2022/06/21 11:06:22;;;;;;;4.15;1.05;;;22.50;99.90;;;;;;5025377;28;20136;-25
2022/06/21 11:09:08;;;;;;;5.43;1.20;;;23.00;99.90;;;;;;5074155;28;20102;-25
2022/06/21 11:11:50;;;;;;;8.60;1.50;;;23.80;99.90;;;;;;5077126;28;20406;-26
2022/06/21 11:14:43;;;;;;;5.55;1.50;;;23.80;99.90;;;;;;5077174;28;20123;-25
2022/06/21 11:17:26;;;;;;;5.57;1.50;;;23.50;99.90;;;;;;5077073;28;20049;-26
2022/06/21 11:20:12;;;;;;;4.45;1.00;;;23.50;99.90;;;;;;5059112;28;20071;-25
2022/06/21 11:22:52;;;;;;;5.15;1.50;;;23.70;99.90;;;;;;5076999;28;20052;-25
2022/06/21 11:25:48;;;;;;;6.47;1.40;;;24.30;99.90;;;;;;5076586;28;20052;-26
2022/06/21 11:28:31;;;;;;;7.97;1.40;;;24.80;99.90;;;;;;5076420;28;20471;-27
2022/06/21 11:31:00;;;;;;;;;;;25.00;99.90;;;;;;5076722;28;20044;-26
2022/06/21 11:33:35;;;;;;;4.25;1.30;;;24.50;99.90;;;;;;5075920;28;19925;-26
2022/06/21 11:36:33;;;;;;;3.95;0.93;;;23.80;99.90;;;;;;5076173;28;20052;-26
2022/06/21 11:39:24;;;;;;;5.13;1.30;;;23.40;99.90;;;;;;5076113;28;20486;-25
2022/06/21 11:42:08;;;;;;;5.90;1.40;;;22.80;99.90;;;;;;5058407;28;20135;-27
2022/06/21 11:44:52;;;;;;;7.20;1.23;;;23.00;99.90;;;;;;5076637;28;20075;-26
2022/06/21 11:47:32;;;;;;;2.92;0.90;;;23.60;99.90;;;;;;5075991;28;20049;-26
2022/06/21 11:50:19;;;;;;;6.32;1.60;;;24.20;99.90;;;;;;5075835;28;20051;-26
2022/06/21 11:53:03;;;;;;;2.53;0.88;;;24.50;99.90;;;;;;5075889;28;20045;-26
2022/06/21 11:55:42;;;;;;;2.75;1.45;;;24.70;99.90;;;;;;5075822;28;20045;-26
2022/06/21 11:58:42;;;;;;;4.38;1.17;;;25.20;99.90;;;;;;5075810;28;20530;-26
2022/06/21 12:01:21;;;;;;;4.03;1.27;;;26.00;99.90;;;;;;5076508;28;20463;-26
2022/06/21 12:03:58;;;;;;;3.90;1.20;;;26.50;99.90;;;;;;5075680;28;20040;-26
2022/06/21 12:06:38;;;;;;;3.75;1.08;;;26.20;99.90;;;;;;5075605;28;20044;-26
2022/06/21 12:09:39;;;;;;;4.25;1.20;;;25.70;99.90;;;;;;5074685;28;20087;-26
2022/06/21 12:12:23;;;;;;;4.13;1.27;;;25.20;99.90;;;;;;5075414;28;20051;-26
2022/06/21 12:15:01;;;;;;;3.55;1.42;;;24.50;99.90;;;;;;5075453;28;20051;-26
2022/06/21 12:17:49;;;;;;;3.17;1.10;;;24.20;99.90;;;;;;5075108;28;20498;-26
2022/06/21 12:20:23;;;;;;;5.07;1.10;;;24.80;99.90;;;;;;5076160;28;20075;-26
2022/06/21 12:23:18;;;;;;;5.07;1.15;;;25.10;99.90;;;;;;5076111;28;20040;-26
2022/06/21 12:25:45;;;;;;;5.50;1.65;;;25.30;99.90;;;;;;5075749;28;20055;-26
2022/06/21 12:28:17;;;;;;;3.65;1.55;;;25.20;99.90;;;;;;5075146;28;20487;-26
2022/06/21 12:30:43;;;;;;;;;;;25.30;99.90;;;;;;5058194;28;20406;-26
2022/06/21 12:33:13;;;;;;;3.47;1.15;;;25.10;99.90;;;;;;5075045;28;19921;-26
2022/06/21 12:35:50;;;;;;;7.20;1.67;;;25.30;99.90;;;;;;5075493;28;20132;-26
2022/06/21 12:38:21;;;;;;;7.07;1.40;;;25.40;99.90;;;;;;5075784;28;20041;-26
2022/06/21 12:40:59;;;;;;;5.03;1.50;;;25.20;99.90;;;;;;5075513;28;20055;-26
2022/06/21 12:43:46;;;;;;;4.80;1.45;;;25.10;99.90;;;;;;5073522;28;20581;-27
2022/06/21 12:46:20;;;;;;;4.80;1.70;;;24.90;99.90;;;;;;5074785;28;20052;-26
2022/06/21 12:48:52;;;;;;;3.13;0.98;;;24.90;99.90;;;;;;5074769;28;20044;-26
2022/06/21 12:51:25;;;;;;;;;;;25.30;99.90;;;;;;5075116;28;20055;-26
2022/06/21 12:53:54;;;;;;;3.60;1.20;;;25.00;99.90;;;;;;5057431;28;19920;-26
2022/06/21 12:56:28;;;;;;;2.88;1.27;;;25.10;99.90;;;;;;5074413;28;20374;-27
2022/06/21 12:58:57;;;;;;;3.63;1.30;;;24.90;99.90;;;;;;5074538;28;20040;-26
2022/06/21 13:01:29;;;;;;;6.50;1.33;;;24.80;99.90;;;;;;5074374;28;20501;-27
2022/06/21 13:04:32;;;;;;;4.63;1.10;;;24.90;99.90;;;;;;5091938;28;20415;-26
2022/06/21 13:07:44;;;;;;;6.63;1.13;;;25.50;99.90;;;;;;5091214;28;20048;-27
2022/06/21 13:10:36;;;;;;;3.55;1.45;;;25.50;99.90;;;;;;5052485;28;20045;-26
2022/06/21 13:13:32;;;;;;;5.55;1.50;;;25.80;99.90;;;;;;5091102;28;20083;-26
2022/06/21 13:16:10;;;;;;;5.63;1.05;;;25.90;99.90;;;;;;5091085;28;20052;-26
2022/06/21 13:19:02;;;;;;;4.25;1.13;;;25.60;99.90;;;;;;5091597;28;20048;-27
2022/06/21 13:21:37;;;;;;;4.15;0.98;;;25.70;99.90;;;;;;5091824;28;20076;-26
2022/06/21 13:24:30;;;;;;;3.92;1.20;;;25.10;99.90;;;;;;5090950;28;20505;-26
2022/06/21 13:27:15;;;;;;;3.60;0.73;;;24.50;99.90;;;;;;5090914;28;20101;-26
2022/06/21 13:30:06;;;;;;;3.17;1.00;;;23.80;99.90;;;;;;5091169;28;20040;-27
2022/06/21 13:32:42;;;;;;;6.47;1.27;;;23.40;99.90;;;;;;5090367;28;20055;-26
2022/06/21 13:35:32;;;;;;;4.82;1.40;;;23.00;99.90;;;;;;5073113;28;20106;-27
2022/06/21 13:38:11;;;;;;;1.50;0.65;;;22.90;99.90;;;;;;5091490;28;20378;-26
2022/06/21 13:40:46;;;;;;;3.47;0.85;;;22.60;99.90;;;;;;5091182;28;20106;-26
2022/06/21 13:43:24;;;;;;;3.70;1.85;;;22.40;99.90;;;;;;5090776;28;20055;-26
2022/06/21 13:45:58;;;;;;;3.17;1.10;;;22.40;99.90;;;;;;5090541;28;20123;-26
2022/06/21 13:48:39;;;;;;;5.63;1.35;;;22.30;99.90;;;;;;5089300;28;20486;-26
2022/06/21 13:51:24;;;;;;;2.60;1.05;;;22.50;99.90;;;;;;5090310;28;20052;-26
2022/06/21 13:54:12;;;;;;;4.53;1.02;;;22.80;99.90;;;;;;5089824;28;20170;-26
2022/06/21 13:57:06;;;;;;;5.50;1.40;;;23.30;99.90;;;;;;5090622;28;20067;-26
2022/06/21 13:59:38;;;;;;;5.68;1.88;;;23.70;99.90;;;;;;5089931;28;20066;-26